sensor_id;sensor_type;location;lat;lon;timestamp;pressure;altitude;pressure_sealevel;temperature;humidity
70909;BME280;58554;52.006;5.926;2022-09-09T00:00:17;99948.22;;;19.10;59.68
70909;BME280;58554;52.006;5.926;2022-09-09T00:02:50;99948.06;;;19.11;59.49
70909;BME280;58554;52.006;5.926;2022-09-09T00:05:31;99946.88;;;19.14;59.74
70909;BME280;58554;52.006;5.926;2022-09-09T00:08:15;99943.03;;;19.16;59.65
70909;BME280;58554;52.006;5.926;2022-09-09T00:10:52;99947.41;;;19.17;59.73
70909;BME280;58554;52.006;5.926;2022-09-09T00:13:28;99943.53;;;19.20;59.47
70909;BME280;58554;52.006;5.926;2022-09-09T00:16:04;99944.22;;;19.22;59.77
70909;BME280;58554;52.006;5.926;2022-09-09T00:18:44;99942.38;;;19.22;59.64
70909;BME280;58554;52.006;5.926;2022-09-09T00:21:18;99934.16;;;19.24;59.52
70909;BME280;58554;52.006;5.926;2022-09-09T00:23:51;99933.19;;;19.25;59.44
70909;BME280;58554;52.006;5.926;2022-09-09T00:26:29;99936.53;;;19.27;59.74
70909;BME280;58554;52.006;5.926;2022-09-09T00:29:12;99933.00;;;19.27;59.30
70909;BME280;58554;52.006;5.926;2022-09-09T00:31:47;99937.88;;;19.23;59.60
70909;BME280;58554;52.006;5.926;2022-09-09T00:34:16;99938.19;;;19.20;59.59
70909;BME280;58554;52.006;5.926;2022-09-09T00:36:48;99936.53;;;19.19;59.84
70909;BME280;58554;52.006;5.926;2022-09-09T00:39:23;99940.88;;;19.20;59.74
70909;BME280;58554;52.006;5.926;2022-09-09T00:42:09;99936.53;;;19.19;59.83
70909;BME280;58554;52.006;5.926;2022-09-09T00:44:50;99929.47;;;19.18;60.14
70909;BME280;58554;52.006;5.926;2022-09-09T00:47:36;99921.28;;;19.19;60.08
70909;BME280;58554;52.006;5.926;2022-09-09T00:50:23;99936.19;;;19.22;60.05
70909;BME280;58554;52.006;5.926;2022-09-09T00:53:22;99923.59;;;19.22;59.96
70909;BME280;58554;52.006;5.926;2022-09-09T00:56:04;99922.78;;;19.22;59.88
70909;BME280;58554;52.006;5.926;2022-09-09T00:58:42;99924.47;;;19.23;59.86
70909;BME280;58554;52.006;5.926;2022-09-09T01:01:14;99915.91;;;19.19;59.99
70909;BME280;58554;52.006;5.926;2022-09-09T01:03:45;99920.44;;;19.19;59.97
70909;BME280;58554;52.006;5.926;2022-09-09T01:06:28;99920.09;;;19.22;60.14
70909;BME280;58554;52.006;5.926;2022-09-09T01:09:05;99912.41;;;19.27;59.91
70909;BME280;58554;52.006;5.926;2022-09-09T01:11:57;99917.28;;;19.32;59.94
70909;BME280;58554;52.006;5.926;2022-09-09T01:14:45;99917.13;;;19.33;59.82
70909;BME280;58554;52.006;5.926;2022-09-09T01:17:17;99925.16;;;19.33;59.78
70909;BME280;58554;52.006;5.926;2022-09-09T01:19:57;99927.16;;;19.31;59.86
70909;BME280;58554;52.006;5.926;2022-09-09T01:22:40;99924.63;;;19.30;59.77
70909;BME280;58554;52.006;5.926;2022-09-09T01:28:50;99930.16;;;19.28;59.25
70909;BME280;58554;52.006;5.926;2022-09-09T01:31:23;99921.13;;;19.29;59.51
70909;BME280;58554;52.006;5.926;2022-09-09T01:33:56;99931.66;;;19.31;59.19
70909;BME280;58554;52.006;5.926;2022-09-09T01:36:31;99922.47;;;19.33;59.19
70909;BME280;58554;52.006;5.926;2022-09-09T01:39:10;99926.66;;;19.36;59.20
70909;BME280;58554;52.006;5.926;2022-09-09T01:41:39;99915.94;;;19.36;59.27
70909;BME280;58554;52.006;5.926;2022-09-09T01:44:07;99921.31;;;19.36;58.92
70909;BME280;58554;52.006;5.926;2022-09-09T01:46:34;99934.03;;;19.34;58.93
70909;BME280;58554;52.006;5.926;2022-09-09T01:49:02;99922.78;;;19.30;58.98
70909;BME280;58554;52.006;5.926;2022-09-09T01:51:32;99914.06;;;19.28;58.93
70909;BME280;58554;52.006;5.926;2022-09-09T01:54:00;99923.81;;;19.29;58.82
70909;BME280;58554;52.006;5.926;2022-09-09T01:56:43;99925.63;;;19.29;58.69
70909;BME280;58554;52.006;5.926;2022-09-09T01:59:41;99918.91;;;19.25;58.82
70909;BME280;58554;52.006;5.926;2022-09-09T02:02:26;99918.25;;;19.22;58.74
70909;BME280;58554;52.006;5.926;2022-09-09T02:05:09;99914.06;;;19.20;58.69
70909;BME280;58554;52.006;5.926;2022-09-09T02:07:47;99917.75;;;19.19;58.70
70909;BME280;58554;52.006;5.926;2022-09-09T02:10:28;99916.91;;;19.18;58.64
70909;BME280;58554;52.006;5.926;2022-09-09T02:13:07;99904.00;;;19.14;58.29
70909;BME280;58554;52.006;5.926;2022-09-09T02:15:44;99911.72;;;19.09;58.65
70909;BME280;58554;52.006;5.926;2022-09-09T02:18:29;99907.00;;;19.02;58.58
70909;BME280;58554;52.006;5.926;2022-09-09T02:21:07;99913.53;;;19.00;58.78
70909;BME280;58554;52.006;5.926;2022-09-09T02:23:36;99905.66;;;18.98;58.70
70909;BME280;58554;52.006;5.926;2022-09-09T02:26:14;99906.63;;;18.97;58.63
70909;BME280;58554;52.006;5.926;2022-09-09T02:28:48;99902.31;;;18.96;58.49
70909;BME280;58554;52.006;5.926;2022-09-09T02:31:18;99905.97;;;18.95;58.59
70909;BME280;58554;52.006;5.926;2022-09-09T02:33:52;99899.78;;;18.95;58.69
70909;BME280;58554;52.006;5.926;2022-09-09T02:36:24;99901.09;;;18.91;58.39
70909;BME280;58554;52.006;5.926;2022-09-09T02:38:56;99908.44;;;18.80;58.46
70909;BME280;58554;52.006;5.926;2022-09-09T02:41:24;99895.47;;;18.68;58.66
70909;BME280;58554;52.006;5.926;2022-09-09T02:43:59;99900.50;;;18.63;58.75
70909;BME280;58554;52.006;5.926;2022-09-09T02:46:38;99901.31;;;18.63;58.80
70909;BME280;58554;52.006;5.926;2022-09-09T02:49:25;99890.91;;;18.60;59.07
70909;BME280;58554;52.006;5.926;2022-09-09T02:52:06;99900.66;;;18.61;58.94
70909;BME280;58554;52.006;5.926;2022-09-09T02:54:40;99900.94;;;18.58;58.79
70909;BME280;58554;52.006;5.926;2022-09-09T02:57:11;99891.09;;;18.58;58.92
70909;BME280;58554;52.006;5.926;2022-09-09T02:59:50;99884.75;;;18.59;58.95
70909;BME280;58554;52.006;5.926;2022-09-09T03:02:19;99898.13;;;18.59;58.98
70909;BME280;58554;52.006;5.926;2022-09-09T03:04:45;99885.41;;;18.61;58.98
70909;BME280;58554;52.006;5.926;2022-09-09T03:07:11;99890.91;;;18.60;58.89
70909;BME280;58554;52.006;5.926;2022-09-09T03:09:38;99891.09;;;18.58;59.04
70909;BME280;58554;52.006;5.926;2022-09-09T03:12:05;99900.94;;;18.58;58.79
70909;BME280;58554;52.006;5.926;2022-09-09T03:14:31;99901.13;;;18.56;58.79
70909;BME280;58554;52.006;5.926;2022-09-09T03:17:00;99902.13;;;18.55;58.87
70909;BME280;58554;52.006;5.926;2022-09-09T03:19:26;99897.59;;;18.56;58.87
70909;BME280;58554;52.006;5.926;2022-09-09T03:21:53;99904.13;;;18.53;59.16
70909;BME280;58554;52.006;5.926;2022-09-09T03:24:20;99897.09;;;18.52;59.12
70909;BME280;58554;52.006;5.926;2022-09-09T03:26:46;99908.66;;;18.53;59.05
70909;BME280;58554;52.006;5.926;2022-09-09T03:29:12;99909.47;;;18.53;58.97
70909;BME280;58554;52.006;5.926;2022-09-09T03:31:39;99904.78;;;18.55;59.07
70909;BME280;58554;52.006;5.926;2022-09-09T03:34:11;99910.31;;;18.54;59.12
70909;BME280;58554;52.006;5.926;2022-09-09T03:36:37;99910.50;;;18.52;59.05
70909;BME280;58554;52.006;5.926;2022-09-09T03:39:04;99910.31;;;18.54;59.29
70909;BME280;58554;52.006;5.926;2022-09-09T03:41:30;99903.28;;;18.53;59.19
70909;BME280;58554;52.006;5.926;2022-09-09T03:43:57;99909.47;;;18.53;58.97
70909;BME280;58554;52.006;5.926;2022-09-09T03:46:25;99907.81;;;18.52;58.93
70909;BME280;58554;52.006;5.926;2022-09-09T03:48:52;99910.50;;;18.52;58.85
70909;BME280;58554;52.006;5.926;2022-09-09T03:51:23;99915.84;;;18.52;59.25
70909;BME280;58554;52.006;5.926;2022-09-09T03:53:49;99908.78;;;18.51;59.00
70909;BME280;58554;52.006;5.926;2022-09-09T03:56:16;99903.59;;;18.50;58.92
70909;BME280;58554;52.006;5.926;2022-09-09T03:58:42;99898.44;;;18.48;58.97
70909;BME280;58554;52.006;5.926;2022-09-09T04:01:12;99897.56;;;18.48;59.33
70909;BME280;58554;52.006;5.926;2022-09-09T04:03:40;99898.44;;;18.48;59.22
70909;BME280;58554;52.006;5.926;2022-09-09T04:06:13;99897.06;;;18.44;59.42
70909;BME280;58554;52.006;5.926;2022-09-09T04:08:47;99895.22;;;18.45;59.29
70909;BME280;58554;52.006;5.926;2022-09-09T04:11:14;99902.25;;;18.46;59.51
70909;BME280;58554;52.006;5.926;2022-09-09T04:13:41;99905.94;;;18.45;59.53
70909;BME280;58554;52.006;5.926;2022-09-09T04:16:10;99898.38;;;18.40;59.68
70909;BME280;58554;52.006;5.926;2022-09-09T04:18:38;99899.22;;;18.40;59.64
70909;BME280;58554;52.006;5.926;2022-09-09T04:21:05;99896.53;;;18.40;59.95
70909;BME280;58554;52.006;5.926;2022-09-09T04:23:32;99888.50;;;18.40;60.02
70909;BME280;58554;52.006;5.926;2022-09-09T04:26:02;99891.72;;;18.44;60.00
70909;BME280;58554;52.006;5.926;2022-09-09T04:28:31;99881.69;;;18.46;59.69
70909;BME280;58554;52.006;5.926;2022-09-09T04:31:13;99880.38;;;18.50;59.98
70909;BME280;58554;52.006;5.926;2022-09-09T04:33:42;99882.03;;;18.51;59.67
70909;BME280;58554;52.006;5.926;2022-09-09T04:36:08;99875.84;;;18.51;59.81
70909;BME280;58554;52.006;5.926;2022-09-09T04:38:36;99886.22;;;18.54;59.81
70909;BME280;58554;52.006;5.926;2022-09-09T04:41:05;99877.34;;;18.53;59.72
70909;BME280;58554;52.006;5.926;2022-09-09T04:43:32;99875.50;;;18.54;59.71
70909;BME280;58554;52.006;5.926;2022-09-09T04:45:58;99886.22;;;18.54;59.91
70909;BME280;58554;52.006;5.926;2022-09-09T04:48:25;99865.81;;;18.53;59.81
70909;BME280;58554;52.006;5.926;2022-09-09T04:50:56;99874.50;;;18.55;60.00
70909;BME280;58554;52.006;5.926;2022-09-09T04:53:23;99868.81;;;18.58;59.84
70909;BME280;58554;52.006;5.926;2022-09-09T04:55:50;99873.34;;;18.57;59.75
70909;BME280;58554;52.006;5.926;2022-09-09T04:58:21;99876.03;;;18.57;60.08
70909;BME280;58554;52.006;5.926;2022-09-09T05:00:47;99887.22;;;18.53;59.99
70909;BME280;58554;52.006;5.926;2022-09-09T05:03:13;99880.81;;;18.46;60.06
70909;BME280;58554;52.006;5.926;2022-09-09T05:05:40;99882.47;;;18.38;60.20
70909;BME280;58554;52.006;5.926;2022-09-09T05:08:07;99881.44;;;18.31;60.19
70909;BME280;58554;52.006;5.926;2022-09-09T05:10:37;99875.19;;;18.23;60.20
70909;BME280;58554;52.006;5.926;2022-09-09T05:13:05;99877.16;;;18.12;60.39
70909;BME280;58554;52.006;5.926;2022-09-09T05:15:34;99872.06;;;18.01;60.55
70909;BME280;58554;52.006;5.926;2022-09-09T05:18:01;99868.81;;;17.89;60.66
70909;BME280;58554;52.006;5.926;2022-09-09T05:20:29;99866.69;;;17.75;61.07
70909;BME280;58554;52.006;5.926;2022-09-09T05:22:56;99874.13;;;17.63;61.25
70909;BME280;58554;52.006;5.926;2022-09-09T05:25:23;99868.19;;;17.51;61.54
70909;BME280;58554;52.006;5.926;2022-09-09T05:27:49;99866.75;;;17.39;61.65
70909;BME280;58554;52.006;5.926;2022-09-09T05:30:16;99868.84;;;17.27;62.11
70909;BME280;58554;52.006;5.926;2022-09-09T05:32:45;99864.41;;;17.18;62.55
70909;BME280;58554;52.006;5.926;2022-09-09T05:35:12;99862.78;;;17.07;62.82
70909;BME280;58554;52.006;5.926;2022-09-09T05:37:38;99871.72;;;16.98;62.88
70909;BME280;58554;52.006;5.926;2022-09-09T05:40:05;99866.31;;;16.90;63.21
70909;BME280;58554;52.006;5.926;2022-09-09T05:42:32;99876.31;;;16.78;63.59
70909;BME280;58554;52.006;5.926;2022-09-09T05:44:59;99866.25;;;16.72;63.75
70909;BME280;58554;52.006;5.926;2022-09-09T05:47:25;99875.69;;;16.66;64.00
70909;BME280;58554;52.006;5.926;2022-09-09T05:49:54;99871.78;;;16.60;64.26
70909;BME280;58554;52.006;5.926;2022-09-09T05:52:21;99874.06;;;16.55;64.42
70909;BME280;58554;52.006;5.926;2022-09-09T05:54:48;99871.16;;;16.49;64.76
70909;BME280;58554;52.006;5.926;2022-09-09T05:57:15;99869.91;;;16.43;64.80
70909;BME280;58554;52.006;5.926;2022-09-09T05:59:41;99869.34;;;16.39;65.01
70909;BME280;58554;52.006;5.926;2022-09-09T06:02:08;99878.50;;;16.37;65.19
70909;BME280;58554;52.006;5.926;2022-09-09T06:04:35;99876.13;;;16.34;65.37
70909;BME280;58554;52.006;5.926;2022-09-09T06:07:04;99874.75;;;16.30;65.40
70909;BME280;58554;52.006;5.926;2022-09-09T06:09:31;99876.84;;;16.26;65.72
70909;BME280;58554;52.006;5.926;2022-09-09T06:11:58;99879.84;;;16.23;65.86
70909;BME280;58554;52.006;5.926;2022-09-09T06:14:24;99877.31;;;16.22;66.05
70909;BME280;58554;52.006;5.926;2022-09-09T06:16:51;99875.91;;;16.17;66.25
70909;BME280;58554;52.006;5.926;2022-09-09T06:19:17;99869.88;;;16.15;66.41
70909;BME280;58554;52.006;5.926;2022-09-09T06:21:44;99873.53;;;16.14;66.46
70909;BME280;58554;52.006;5.926;2022-09-09T06:24:13;99875.50;;;16.12;66.75
70909;BME280;58554;52.006;5.926;2022-09-09T06:26:40;99873.81;;;16.11;66.78
70909;BME280;58554;52.006;5.926;2022-09-09T06:29:07;99869.47;;;16.10;66.96
70909;BME280;58554;52.006;5.926;2022-09-09T06:31:35;99868.63;;;16.10;67.23
70909;BME280;58554;52.006;5.926;2022-09-09T06:34:07;99880.00;;;16.12;67.30
70909;BME280;58554;52.006;5.926;2022-09-09T06:36:37;99878.72;;;16.16;67.31
70909;BME280;58554;52.006;5.926;2022-09-09T06:39:13;99881.13;;;16.19;67.38
70909;BME280;58554;52.006;5.926;2022-09-09T06:41:50;99880.34;;;16.27;67.35
70909;BME280;58554;52.006;5.926;2022-09-09T06:44:20;99878.56;;;16.27;67.50
70909;BME280;58554;52.006;5.926;2022-09-09T06:46:48;99881.06;;;16.29;67.36
70909;BME280;58554;52.006;5.926;2022-09-09T06:49:15;99880.09;;;16.30;67.55
70909;BME280;58554;52.006;5.926;2022-09-09T06:51:41;99882.63;;;16.31;67.56
70909;BME280;58554;52.006;5.926;2022-09-09T06:54:12;99884.84;;;16.36;67.88
70909;BME280;58554;52.006;5.926;2022-09-09T06:56:42;99875.22;;;16.43;67.82
70909;BME280;58554;52.006;5.926;2022-09-09T06:59:09;99875.66;;;16.48;67.59
70909;BME280;58554;52.006;5.926;2022-09-09T07:04:42;99876.81;;;16.64;67.78
70909;BME280;58554;52.006;5.926;2022-09-09T07:07:09;99876.22;;;16.70;67.68
70909;BME280;58554;52.006;5.926;2022-09-09T07:09:40;99869.75;;;16.72;67.68
70909;BME280;58554;52.006;5.926;2022-09-09T07:12:14;99872.28;;;16.74;67.52
70909;BME280;58554;52.006;5.926;2022-09-09T07:14:41;99878.84;;;16.79;67.55
70909;BME280;58554;52.006;5.926;2022-09-09T07:17:07;99874.75;;;16.85;67.51
70909;BME280;58554;52.006;5.926;2022-09-09T07:19:36;99882.84;;;16.93;67.49
70909;BME280;58554;52.006;5.926;2022-09-09T07:22:16;99877.06;;;16.98;67.60
70909;BME280;58554;52.006;5.926;2022-09-09T07:24:43;99874.22;;;16.99;67.21
70909;BME280;58554;52.006;5.926;2022-09-09T07:27:12;99877.31;;;17.05;67.35
70909;BME280;58554;52.006;5.926;2022-09-09T07:29:43;99882.47;;;17.06;67.23
70909;BME280;58554;52.006;5.926;2022-09-09T07:32:51;99875.69;;;17.12;67.23
70909;BME280;58554;52.006;5.926;2022-09-09T07:35:24;99873.41;;;17.17;67.00
70909;BME280;58554;52.006;5.926;2022-09-09T07:38:13;99879.13;;;17.22;67.14
70909;BME280;58554;52.006;5.926;2022-09-09T07:40:43;99876.38;;;17.32;67.16
70909;BME280;58554;52.006;5.926;2022-09-09T07:43:13;99883.31;;;17.43;66.85
70909;BME280;58554;52.006;5.926;2022-09-09T07:45:39;99881.00;;;17.48;66.65
70909;BME280;58554;52.006;5.926;2022-09-09T07:48:06;99885.25;;;17.50;66.36
70909;BME280;58554;52.006;5.926;2022-09-09T07:50:32;99878.72;;;17.53;66.57
70909;BME280;58554;52.006;5.926;2022-09-09T07:52:59;99883.47;;;17.59;66.58
70909;BME280;58554;52.006;5.926;2022-09-09T07:55:25;99892.16;;;17.61;66.29
70909;BME280;58554;52.006;5.926;2022-09-09T07:57:52;99893.00;;;17.61;66.30
70909;BME280;58554;52.006;5.926;2022-09-09T08:00:21;99893.84;;;17.62;66.47
70909;BME280;58554;52.006;5.926;2022-09-09T08:02:48;99895.81;;;17.60;66.39
70909;BME280;58554;52.006;5.926;2022-09-09T08:05:15;99901.84;;;17.62;66.17
70909;BME280;58554;52.006;5.926;2022-09-09T08:07:42;99891.53;;;17.67;66.15
70909;BME280;58554;52.006;5.926;2022-09-09T08:10:08;99893.13;;;17.78;65.93
70909;BME280;58554;52.006;5.926;2022-09-09T08:12:36;99893.38;;;17.85;65.90
70909;BME280;58554;52.006;5.926;2022-09-09T08:15:03;99894.59;;;17.90;65.68
70909;BME280;58554;52.006;5.926;2022-09-09T08:17:33;99899.59;;;17.93;65.29
70909;BME280;58554;52.006;5.926;2022-09-09T08:19:59;99895.94;;;17.94;65.17
70909;BME280;58554;52.006;5.926;2022-09-09T08:22:26;99895.47;;;17.99;65.29
70909;BME280;58554;52.006;5.926;2022-09-09T08:24:52;99893.47;;;18.01;65.18
70909;BME280;58554;52.006;5.926;2022-09-09T08:27:19;99894.00;;;18.05;64.85
70909;BME280;58554;52.006;5.926;2022-09-09T08:29:45;99892.38;;;18.12;64.49
70909;BME280;58554;52.006;5.926;2022-09-09T08:32:13;99892.91;;;18.15;64.50
70909;BME280;58554;52.006;5.926;2022-09-09T08:34:42;99897.75;;;18.20;64.20
70909;BME280;58554;52.006;5.926;2022-09-09T08:37:08;99902.47;;;18.26;64.16
70909;BME280;58554;52.006;5.926;2022-09-09T08:39:35;99906.66;;;18.29;64.17
70909;BME280;58554;52.006;5.926;2022-09-09T08:42:22;99904.53;;;18.32;63.79
70909;BME280;58554;52.006;5.926;2022-09-09T08:45:12;99903.84;;;18.30;64.00
70909;BME280;58554;52.006;5.926;2022-09-09T08:48:00;99908.38;;;18.30;63.85
70909;BME280;58554;52.006;5.926;2022-09-09T08:50:42;99911.19;;;18.28;63.82
70909;BME280;58554;52.006;5.926;2022-09-09T08:53:14;99909.53;;;18.27;63.59
70909;BME280;58554;52.006;5.926;2022-09-09T08:55:47;99906.00;;;18.27;63.88
70909;BME280;58554;52.006;5.926;2022-09-09T08:58:18;99908.66;;;18.27;63.60
70909;BME280;58554;52.006;5.926;2022-09-09T09:01:15;99910.03;;;18.31;63.76
70909;BME280;58554;52.006;5.926;2022-09-09T09:04:00;99908.03;;;18.33;63.80
70909;BME280;58554;52.006;5.926;2022-09-09T09:06:46;99913.38;;;18.33;63.55
70909;BME280;58554;52.006;5.926;2022-09-09T09:09:25;99914.06;;;18.35;63.66
70909;BME280;58554;52.006;5.926;2022-09-09T09:12:15;99912.75;;;18.39;63.31
70909;BME280;58554;52.006;5.926;2022-09-09T09:14:46;99920.28;;;18.44;63.34
70909;BME280;58554;52.006;5.926;2022-09-09T09:17:16;99922.19;;;18.51;62.96
70909;BME280;58554;52.006;5.926;2022-09-09T09:19:46;99917.88;;;18.58;62.92
70909;BME280;58554;52.006;5.926;2022-09-09T09:22:19;99921.13;;;18.70;62.81
70909;BME280;58554;52.006;5.926;2022-09-09T09:24:52;99923.16;;;18.76;62.19
70909;BME280;58554;52.006;5.926;2022-09-09T09:27:30;99931.72;;;18.80;62.16
70909;BME280;58554;52.006;5.926;2022-09-09T09:30:00;99924.19;;;18.84;61.70
70909;BME280;58554;52.006;5.926;2022-09-09T09:32:32;99921.53;;;18.84;61.50
70909;BME280;58554;52.006;5.926;2022-09-09T09:35:02;99928.03;;;18.81;61.39
70909;BME280;58554;52.006;5.926;2022-09-09T09:37:40;99925.69;;;18.78;61.62
70909;BME280;58554;52.006;5.926;2022-09-09T09:40:08;99924.47;;;18.72;61.50
70909;BME280;58554;52.006;5.926;2022-09-09T09:42:37;99928.16;;;18.71;61.60
70909;BME280;58554;52.006;5.926;2022-09-09T09:45:16;99922.94;;;18.70;61.65
70909;BME280;58554;52.006;5.926;2022-09-09T09:47:58;99922.47;;;18.74;61.75
70909;BME280;58554;52.006;5.926;2022-09-09T09:50:26;99921.84;;;18.80;61.33
70909;BME280;58554;52.006;5.926;2022-09-09T09:53:00;99915.97;;;18.85;61.44
70909;BME280;58554;52.006;5.926;2022-09-09T09:55:31;99915.19;;;18.93;61.28
70909;BME280;58554;52.006;5.926;2022-09-09T09:58:02;99906.66;;;19.06;61.32
70909;BME280;58554;52.006;5.926;2022-09-09T10:00:30;99915.91;;;19.19;60.86
70909;BME280;58554;52.006;5.926;2022-09-09T10:02:59;99908.41;;;19.31;60.51
70909;BME280;58554;52.006;5.926;2022-09-09T10:05:28;99907.72;;;19.37;60.21
70909;BME280;58554;52.006;5.926;2022-09-09T10:08:11;99909.41;;;19.38;60.05
70909;BME280;58554;52.006;5.926;2022-09-09T10:10:52;99911.41;;;19.36;60.05
70909;BME280;58554;52.006;5.926;2022-09-09T10:13:36;99917.94;;;19.34;60.08
70909;BME280;58554;52.006;5.926;2022-09-09T10:16:22;99918.09;;;19.32;59.95
70909;BME280;58554;52.006;5.926;2022-09-09T10:19:04;99915.94;;;19.28;59.84
70909;BME280;58554;52.006;5.926;2022-09-09T10:21:55;99917.56;;;19.20;59.88
70909;BME280;58554;52.006;5.926;2022-09-09T10:24:54;99917.41;;;19.14;60.26
70909;BME280;58554;52.006;5.926;2022-09-09T10:27:59;99927.41;;;19.04;60.16
70909;BME280;58554;52.006;5.926;2022-09-09T10:31:02;99915.50;;;18.90;60.45
70909;BME280;58554;52.006;5.926;2022-09-09T10:34:01;99921.69;;;18.82;60.45
70909;BME280;58554;52.006;5.926;2022-09-09T10:36:47;99913.94;;;18.79;60.68
70909;BME280;58554;52.006;5.926;2022-09-09T10:39:28;99914.63;;;18.81;60.59
70909;BME280;58554;52.006;5.926;2022-09-09T10:42:08;99917.81;;;18.85;60.79
70909;BME280;58554;52.006;5.926;2022-09-09T10:44:49;99920.34;;;18.86;60.36
70909;BME280;58554;52.006;5.926;2022-09-09T10:47:42;99916.84;;;18.86;60.25
70909;BME280;58554;52.006;5.926;2022-09-09T10:50:42;99913.97;;;18.87;60.42
70909;BME280;58554;52.006;5.926;2022-09-09T10:53:53;99914.16;;;18.86;60.45
70909;BME280;58554;52.006;5.926;2022-09-09T10:56:38;99914.81;;;18.79;60.57
70909;BME280;58554;52.006;5.926;2022-09-09T10:59:15;99914.97;;;18.78;61.06
70909;BME280;58554;52.006;5.926;2022-09-09T11:01:50;99915.50;;;18.81;60.98
70909;BME280;58554;52.006;5.926;2022-09-09T11:04:22;99908.28;;;18.82;60.91
70909;BME280;58554;52.006;5.926;2022-09-09T11:06:55;99911.78;;;18.83;61.24
70909;BME280;58554;52.006;5.926;2022-09-09T11:09:24;99915.31;;;18.83;60.78
70909;BME280;58554;52.006;5.926;2022-09-09T11:11:55;99913.50;;;18.84;61.13
70909;BME280;58554;52.006;5.926;2022-09-09T11:14:34;99905.44;;;18.84;61.12
70909;BME280;58554;52.006;5.926;2022-09-09T11:17:24;99906.13;;;18.86;61.01
70909;BME280;58554;52.006;5.926;2022-09-09T11:20:10;99906.28;;;18.84;60.64
70909;BME280;58554;52.006;5.926;2022-09-09T11:22:44;99915.94;;;18.77;60.90
70909;BME280;58554;52.006;5.926;2022-09-09T11:25:19;99921.66;;;18.74;61.43
70909;BME280;58554;52.006;5.926;2022-09-09T11:28:21;99923.53;;;18.81;62.24
70909;BME280;58554;52.006;5.926;2022-09-09T11:31:21;99922.38;;;18.92;62.30
70909;BME280;58554;52.006;5.926;2022-09-09T11:34:20;99926.47;;;19.13;61.89
70909;BME280;58554;52.006;5.926;2022-09-09T11:37:15;99915.41;;;19.24;61.74
70909;BME280;58554;52.006;5.926;2022-09-09T11:40:22;99912.91;;;19.31;61.75
70909;BME280;58554;52.006;5.926;2022-09-09T11:43:01;99919.13;;;19.31;61.38
70909;BME280;58554;52.006;5.926;2022-09-09T11:45:30;99922.28;;;19.27;61.58
70909;BME280;58554;52.006;5.926;2022-09-09T11:48:04;99920.13;;;19.30;61.62
70909;BME280;58554;52.006;5.926;2022-09-09T11:50:35;99922.78;;;19.30;61.55
70909;BME280;58554;52.006;5.926;2022-09-09T11:53:19;99910.22;;;19.39;61.87
70909;BME280;58554;52.006;5.926;2022-09-09T11:55:59;99915.97;;;19.52;61.43
70909;BME280;58554;52.006;5.926;2022-09-09T11:58:33;99922.66;;;19.56;61.25
70909;BME280;58554;52.006;5.926;2022-09-09T12:01:16;99919.13;;;19.56;61.18
70909;BME280;58554;52.006;5.926;2022-09-09T12:04:06;99912.59;;;19.50;61.35
70909;BME280;58554;52.006;5.926;2022-09-09T12:06:45;99924.47;;;19.48;61.70
70909;BME280;58554;52.006;5.926;2022-09-09T12:09:22;99918.78;;;19.51;61.88
70909;BME280;58554;52.006;5.926;2022-09-09T12:12:05;99917.44;;;19.47;62.00
70909;BME280;58554;52.006;5.926;2022-09-09T12:14:42;99914.41;;;19.41;61.94
70909;BME280;58554;52.006;5.926;2022-09-09T12:17:22;99919.97;;;19.40;62.12
70909;BME280;58554;52.006;5.926;2022-09-09T12:20:06;99914.41;;;19.41;61.89
70909;BME280;58554;52.006;5.926;2022-09-09T12:22:47;99918.13;;;19.40;62.22
70909;BME280;58554;52.006;5.926;2022-09-09T12:25:32;99908.38;;;19.39;61.75
70909;BME280;58554;52.006;5.926;2022-09-09T12:28:15;99918.63;;;19.36;62.09
70909;BME280;58554;52.006;5.926;2022-09-09T12:30:55;99910.06;;;19.32;62.13
70909;BME280;58554;52.006;5.926;2022-09-09T12:33:34;99911.41;;;19.28;61.75
70909;BME280;58554;52.006;5.926;2022-09-09T12:36:10;99908.84;;;19.18;61.87
70909;BME280;58554;52.006;5.926;2022-09-09T12:38:42;99907.84;;;19.11;62.31
70909;BME280;58554;52.006;5.926;2022-09-09T12:41:19;99909.50;;;19.12;62.59
70909;BME280;58554;52.006;5.926;2022-09-09T12:43:48;99900.81;;;19.18;62.41
70909;BME280;58554;52.006;5.926;2022-09-09T12:46:22;99905.88;;;19.30;62.29
70909;BME280;58554;52.006;5.926;2022-09-09T12:48:56;99894.31;;;19.37;62.26
70909;BME280;58554;52.006;5.926;2022-09-09T12:51:28;99891.63;;;19.46;61.97
70909;BME280;58554;52.006;5.926;2022-09-09T12:53:58;99894.97;;;19.56;61.76
70909;BME280;58554;52.006;5.926;2022-09-09T12:56:28;99896.69;;;19.57;61.50
70909;BME280;58554;52.006;5.926;2022-09-09T12:58:58;99893.88;;;19.58;61.33
70909;BME280;58554;52.006;5.926;2022-09-09T13:01:26;99885.94;;;19.57;61.39
70909;BME280;58554;52.006;5.926;2022-09-09T13:03:55;99888.94;;;19.54;61.23
70909;BME280;58554;52.006;5.926;2022-09-09T13:06:27;99889.63;;;19.48;61.33
70909;BME280;58554;52.006;5.926;2022-09-09T13:08:57;99876.88;;;19.41;61.62
70909;BME280;58554;52.006;5.926;2022-09-09T13:11:27;99872.53;;;19.40;61.55
70909;BME280;58554;52.006;5.926;2022-09-09T13:13:58;99878.88;;;19.39;61.49
70909;BME280;58554;52.006;5.926;2022-09-09T13:16:27;99886.78;;;19.33;61.92
70909;BME280;58554;52.006;5.926;2022-09-09T13:18:56;99878.41;;;19.28;62.46
70909;BME280;58554;52.006;5.926;2022-09-09T13:21:35;99878.91;;;19.31;63.20
70909;BME280;58554;52.006;5.926;2022-09-09T13:24:06;99891.47;;;19.39;63.04
70909;BME280;58554;52.006;5.926;2022-09-09T13:26:55;99883.78;;;19.52;63.13
70909;BME280;58554;52.006;5.926;2022-09-09T13:29:23;99876.59;;;19.61;62.91
70909;BME280;58554;52.006;5.926;2022-09-09T13:31:50;99882.94;;;19.68;62.91
70909;BME280;58554;52.006;5.926;2022-09-09T13:34:28;99871.53;;;19.82;63.02
70909;BME280;58554;52.006;5.926;2022-09-09T13:37:02;99874.56;;;19.88;62.47
70909;BME280;58554;52.006;5.926;2022-09-09T13:39:33;99883.94;;;19.92;62.04
70909;BME280;58554;52.006;5.926;2022-09-09T13:42:04;99870.31;;;20.01;62.02